createdAt,value
2019-06-08T00:01:26.329Z,13.45
2019-06-08T00:03:55.019Z,13.34
2019-06-08T00:06:23.695Z,13.27
2019-06-08T00:08:52.353Z,13.38
2019-06-08T00:11:21.239Z,13.34
2019-06-08T00:13:49.927Z,13.22
2019-06-08T00:16:19.360Z,13.17
2019-06-08T00:18:48.015Z,13.34
2019-06-08T00:21:17.597Z,13.30
2019-06-08T00:23:46.358Z,13.30
2019-06-08T00:26:16.002Z,13.23
2019-06-08T00:28:44.784Z,13.23
2019-06-08T00:31:13.443Z,13.26
2019-06-08T00:33:42.102Z,13.16
2019-06-08T00:36:10.797Z,13.12
2019-06-08T00:38:39.452Z,13.11
2019-06-08T00:41:08.122Z,13.21
2019-06-08T00:43:36.796Z,13.19
2019-06-08T00:46:05.493Z,13.30
2019-06-08T00:48:34.147Z,13.19
2019-06-08T00:51:02.816Z,13.17
2019-06-08T00:53:31.505Z,13.33
2019-06-08T00:56:00.502Z,13.27
2019-06-08T00:58:30.469Z,13.13
2019-06-08T01:00:59.531Z,12.78
2019-06-08T01:03:28.268Z,12.81
2019-06-08T01:05:57.002Z,12.87
2019-06-08T01:08:25.679Z,12.78
2019-06-08T01:10:54.359Z,12.83
2019-06-08T01:13:23.322Z,12.93
2019-06-08T01:18:24.566Z,13.20
2019-06-08T01:20:53.673Z,13.18
2019-06-08T01:23:23.430Z,13.18
2019-06-08T01:25:52.174Z,13.12
2019-06-08T01:28:22.124Z,13.12
2019-06-08T01:30:50.966Z,13.16
2019-06-08T01:33:20.401Z,13.12
2019-06-08T01:35:49.199Z,13.07
2019-06-08T01:38:17.854Z,13.03
2019-06-08T01:40:46.512Z,13.08
2019-06-08T01:43:15.467Z,13.05
2019-06-08T01:45:44.189Z,13.10
2019-06-08T01:48:19.880Z,13.01
2019-06-08T01:50:43.224Z,12.84
2019-06-08T01:53:11.922Z,12.80
2019-06-08T01:55:40.648Z,12.72
2019-06-08T01:58:09.305Z,12.73
2019-06-08T02:00:41.442Z,12.77
2019-06-08T02:03:08.466Z,12.83
2019-06-08T02:05:37.257Z,12.81
2019-06-08T02:08:06.238Z,12.81
2019-06-08T02:10:35.051Z,12.87
2019-06-08T02:13:03.671Z,12.86
2019-06-08T02:15:33.773Z,12.95
2019-06-08T02:18:02.467Z,13.08
2019-06-08T02:20:31.225Z,12.95
2019-06-08T02:22:59.906Z,12.75
2019-06-08T02:25:29.480Z,12.57
2019-06-08T02:27:58.282Z,12.55
2019-06-08T02:30:31.217Z,12.50
2019-06-08T02:33:00.086Z,12.48
2019-06-08T02:35:30.693Z,12.82
2019-06-08T02:37:59.520Z,12.60
2019-06-08T02:40:30.248Z,12.38
2019-06-08T02:42:58.733Z,12.25
2019-06-08T02:45:29.439Z,12.42
2019-06-08T02:47:57.869Z,12.36
2019-06-08T02:50:52.666Z,12.12
2019-06-08T02:53:21.573Z,12.12
2019-06-08T02:55:51.040Z,12.04
2019-06-08T02:58:20.113Z,12.10
2019-06-08T03:00:49.533Z,12.17
2019-06-08T03:03:18.560Z,12.17
2019-06-08T03:05:50.135Z,12.32
2019-06-08T03:08:20.230Z,12.32
2019-06-08T03:10:51.493Z,12.30
2019-06-08T03:13:25.080Z,12.12
2019-06-08T03:15:54.088Z,12.54
2019-06-08T03:18:22.756Z,12.58
2019-06-08T03:20:51.434Z,12.55
2019-06-08T03:23:20.122Z,12.64
2019-06-08T03:25:52.868Z,12.72
2019-06-08T03:28:19.192Z,12.70
2019-06-08T03:30:54.118Z,12.66
2019-06-08T03:33:18.267Z,12.52
2019-06-08T03:35:56.295Z,12.67
2019-06-08T03:38:17.343Z,12.73
2019-06-08T03:40:46.005Z,12.75
2019-06-08T03:43:14.673Z,12.71
2019-06-08T03:45:45.162Z,12.90
2019-06-08T03:48:13.752Z,12.87
2019-06-08T03:50:44.453Z,12.94
2019-06-08T03:53:12.905Z,12.94
2019-06-08T03:55:43.063Z,13.03
2019-06-08T03:58:12.516Z,13.15
2019-06-08T04:00:42.380Z,13.22
2019-06-08T04:03:11.229Z,13.29
2019-06-08T04:05:42.221Z,13.26
2019-06-08T04:08:10.573Z,13.27
2019-06-08T04:10:39.875Z,13.27
2019-06-08T04:13:11.619Z,13.35
2019-06-08T04:15:40.306Z,13.42
2019-06-08T04:18:09.974Z,13.50
2019-06-08T04:20:40.339Z,13.48
2019-06-08T04:23:09.124Z,13.60
2019-06-08T04:25:38.377Z,13.57
2019-06-08T04:28:07.585Z,13.60
2019-06-08T04:30:36.244Z,13.64
2019-06-08T04:33:04.930Z,13.66
2019-06-08T04:35:33.610Z,13.65
2019-06-08T04:38:02.276Z,13.61
2019-06-08T04:40:30.967Z,13.57
2019-06-08T04:42:59.622Z,13.46
2019-06-08T04:45:28.336Z,13.37
2019-06-08T04:47:56.984Z,13.24
2019-06-08T04:50:25.645Z,13.18
2019-06-08T04:52:54.406Z,13.07
2019-06-08T04:55:23.082Z,13.08
2019-06-08T04:57:51.770Z,13.04
2019-06-08T05:00:20.711Z,12.97
2019-06-08T05:02:51.190Z,13.04
2019-06-08T05:05:19.954Z,12.97
2019-06-08T05:07:50.316Z,13.11
2019-06-08T05:10:19.076Z,13.07
2019-06-08T05:12:49.868Z,13.16
2019-06-08T05:15:18.741Z,13.27
2019-06-08T05:17:47.612Z,13.45
2019-06-08T05:20:17.001Z,13.49
2019-06-08T05:22:45.759Z,13.66
2019-06-08T05:25:14.777Z,13.98
2019-06-08T05:27:43.458Z,14.27
2019-06-08T05:30:12.307Z,14.51
2019-06-08T05:32:41.389Z,14.48
2019-06-08T05:35:10.916Z,14.62
2019-06-08T05:37:39.584Z,14.66
2019-06-08T05:40:08.761Z,14.90
2019-06-08T05:42:37.429Z,14.99
2019-06-08T05:45:06.760Z,15.12
2019-06-08T05:47:35.610Z,14.86
2019-06-08T05:50:04.928Z,15.39
2019-06-08T05:52:33.608Z,15.13
2019-06-08T05:55:02.354Z,15.50
2019-06-08T05:57:31.049Z,15.58
2019-06-08T05:59:59.705Z,15.59
2019-06-08T06:02:28.378Z,15.77
2019-06-08T06:04:57.236Z,15.59
2019-06-08T06:07:25.916Z,15.69
2019-06-08T06:09:54.600Z,15.86
2019-06-08T06:12:23.261Z,15.62
2019-06-08T06:14:51.916Z,15.78
2019-06-08T06:17:20.611Z,16.18
2019-06-08T06:19:49.303Z,16.11
2019-06-08T06:22:17.943Z,16.07
2019-06-08T06:24:47.621Z,16.20
2019-06-08T06:27:16.361Z,16.42
2019-06-08T06:29:45.451Z,16.57
2019-06-08T06:32:14.456Z,16.98
2019-06-08T06:34:43.913Z,16.95
2019-06-08T06:37:12.633Z,17.33
2019-06-08T06:39:41.926Z,17.59
2019-06-08T06:42:10.693Z,17.63
2019-06-08T06:44:39.351Z,17.61
2019-06-08T06:47:08.009Z,17.86
2019-06-08T06:49:36.724Z,17.66
2019-06-08T06:52:05.461Z,17.68
2019-06-08T06:54:34.135Z,18.39
2019-06-08T06:57:02.808Z,18.40
2019-06-08T06:59:31.478Z,18.53
2019-06-08T07:02:00.518Z,17.98
2019-06-08T07:04:29.492Z,17.09
2019-06-08T07:06:58.189Z,16.92
2019-06-08T07:09:26.844Z,17.07
2019-06-08T07:11:56.626Z,16.98
2019-06-08T07:14:25.518Z,17.13
2019-06-08T07:16:54.197Z,17.34
2019-06-08T07:19:22.862Z,17.67
2019-06-08T07:21:53.067Z,17.16
2019-06-08T07:24:21.939Z,17.33
2019-06-08T07:26:50.634Z,17.27
2019-06-08T07:29:19.536Z,17.22
2019-06-08T07:31:48.666Z,17.30
2019-06-08T07:34:18.553Z,17.02
2019-06-08T07:36:48.457Z,17.04
2019-06-08T07:39:17.777Z,17.26
2019-06-08T07:41:47.410Z,17.37
2019-06-08T07:44:16.928Z,17.25
2019-06-08T07:46:46.937Z,17.48
2019-06-08T07:49:15.735Z,17.20
2019-06-08T07:51:57.603Z,17.41
2019-06-08T07:54:14.828Z,17.49
2019-06-08T07:56:43.486Z,17.39
2019-06-08T07:59:12.241Z,17.97
2019-06-08T08:01:40.951Z,17.99
2019-06-08T08:04:09.603Z,18.39
2019-06-08T08:06:38.290Z,18.50
2019-06-08T08:09:07.989Z,17.93
2019-06-08T08:11:36.688Z,17.78
2019-06-08T08:14:05.699Z,17.77
2019-06-08T08:16:34.356Z,18.52
2019-06-08T08:19:03.014Z,18.54
2019-06-08T08:21:31.702Z,18.84
2019-06-08T08:24:01.630Z,19.07
2019-06-08T08:26:34.017Z,18.84
2019-06-08T08:29:03.104Z,19.25
2019-06-08T08:31:31.292Z,19.06
2019-06-08T08:34:05.628Z,18.51
2019-06-08T08:36:33.294Z,18.63
2019-06-08T08:39:02.478Z,18.91
2019-06-08T08:41:31.333Z,18.41
2019-06-08T08:44:02.819Z,18.59
2019-06-08T08:46:30.415Z,18.37
2019-06-08T08:49:07.338Z,19.10
2019-06-08T08:51:29.547Z,19.19
2019-06-08T08:54:03.193Z,18.82
2019-06-08T08:56:28.574Z,18.94
2019-06-08T08:59:00.947Z,18.71
2019-06-08T09:01:28.811Z,18.43
2019-06-08T09:04:02.938Z,18.73
2019-06-08T09:06:28.305Z,18.62
2019-06-08T09:09:00.878Z,18.62
2019-06-08T09:11:28.894Z,18.62
2019-06-08T09:14:01.406Z,18.47
2019-06-08T09:16:28.741Z,18.80
2019-06-08T09:19:01.148Z,19.06
2019-06-08T09:21:28.237Z,19.47
2019-06-08T09:24:00.782Z,19.36
2019-06-08T09:26:28.736Z,20.12
2019-06-08T09:28:58.398Z,19.85
2019-06-08T09:31:30.806Z,19.75
2019-06-08T09:34:08.562Z,19.16
2019-06-08T09:36:28.907Z,18.71
2019-06-08T09:39:00.997Z,17.93
2019-06-08T09:41:31.168Z,18.18
2019-06-08T09:44:02.206Z,18.44
2019-06-08T09:46:28.966Z,18.58
2019-06-08T09:49:03.652Z,18.53
2019-06-08T09:51:28.633Z,18.90
2019-06-08T09:54:02.080Z,18.74
2019-06-08T09:56:28.409Z,19.97
2019-06-08T09:59:01.258Z,19.51
2019-06-08T10:01:28.598Z,19.61
2019-06-08T10:04:00.626Z,19.35
2019-06-08T10:06:28.092Z,19.37
2019-06-08T10:08:56.733Z,19.51
2019-06-08T10:11:27.908Z,19.36
2019-06-08T10:13:59.386Z,18.95
2019-06-08T10:16:27.978Z,18.71
2019-06-08T10:18:57.707Z,18.64
2019-06-08T10:21:28.417Z,18.85
2019-06-08T10:23:59.753Z,18.67
2019-06-08T10:26:28.113Z,18.91
2019-06-08T10:29:00.313Z,18.81
2019-06-08T10:31:36.472Z,18.68
2019-06-08T10:34:00.579Z,19.06
2019-06-08T10:36:28.542Z,19.00
2019-06-08T10:39:01.842Z,19.11
2019-06-08T10:41:27.994Z,19.17
2019-06-08T10:43:57.179Z,19.10
2019-06-08T10:46:25.941Z,19.38
2019-06-08T10:48:54.682Z,19.88
2019-06-08T10:51:23.352Z,19.67
2019-06-08T10:53:53.529Z,20.58
2019-06-08T10:56:22.631Z,20.65
2019-06-08T10:58:51.417Z,20.30
2019-06-08T11:01:20.069Z,19.66
2019-06-08T11:03:49.079Z,19.18
2019-06-08T11:06:18.758Z,19.24
2019-06-08T11:08:47.770Z,19.08
2019-06-08T11:11:19.489Z,19.13
2019-06-08T11:13:50.188Z,19.54
2019-06-08T11:16:18.050Z,19.81
2019-06-08T11:18:50.845Z,19.47
2019-06-08T11:21:18.867Z,19.55
2019-06-08T11:24:04.533Z,19.88
2019-06-08T11:26:23.905Z,19.90
2019-06-08T11:28:51.219Z,19.97
2019-06-08T11:31:19.830Z,19.68
2019-06-08T11:33:49.119Z,19.00
2019-06-08T11:36:18.893Z,18.58
2019-06-08T11:38:48.056Z,18.73
2019-06-08T11:41:18.953Z,18.75
2019-06-08T11:43:47.144Z,18.88
2019-06-08T11:46:19.026Z,19.12
2019-06-08T11:48:48.361Z,19.31
2019-06-08T11:51:16.652Z,19.94
2019-06-08T11:53:48.231Z,20.69
2019-06-08T11:56:18.272Z,20.64
2019-06-08T11:58:48.604Z,20.85
2019-06-08T12:01:18.552Z,19.98
2019-06-08T12:03:48.392Z,18.77
2019-06-08T12:06:18.522Z,18.86
2019-06-08T12:08:47.482Z,19.07
2019-06-08T12:11:19.748Z,19.64
2019-06-08T12:13:47.345Z,20.90
2019-06-08T12:16:21.623Z,22.17
2019-06-08T12:18:49.210Z,24.29
2019-06-08T12:21:18.600Z,24.55
2019-06-08T12:23:47.446Z,22.70
2019-06-08T12:26:16.168Z,23.78
2019-06-08T12:28:44.836Z,21.98
2019-06-08T12:31:17.688Z,20.79
2019-06-08T12:33:43.992Z,20.36
2019-06-08T12:36:15.591Z,20.05
2019-06-08T12:38:43.144Z,19.86
2019-06-08T12:41:12.727Z,19.64
2019-06-08T12:43:42.317Z,20.73
2019-06-08T12:46:12.900Z,21.21
2019-06-08T12:48:41.352Z,21.88
2019-06-08T12:51:12.087Z,21.72
2019-06-08T12:53:40.532Z,23.27
2019-06-08T12:56:11.734Z,22.28
2019-06-08T12:58:39.596Z,22.11
2019-06-08T13:01:09.802Z,22.29
2019-06-08T13:03:38.677Z,20.00
2019-06-08T13:06:09.179Z,20.00
2019-06-08T13:08:37.850Z,20.29
2019-06-08T13:11:08.145Z,20.83
2019-06-08T13:13:37.766Z,20.67
2019-06-08T13:16:06.597Z,20.40
2019-06-08T13:18:35.265Z,21.66
2019-06-08T13:21:16.805Z,22.66
2019-06-08T13:23:34.411Z,25.18
2019-06-08T13:26:03.078Z,25.39
2019-06-08T13:28:31.753Z,23.24
2019-06-08T13:31:00.435Z,22.00
2019-06-08T13:33:29.092Z,20.81
2019-06-08T13:35:58.111Z,20.51
2019-06-08T13:38:27.796Z,21.43
2019-06-08T13:40:58.802Z,21.43
2019-06-08T13:43:27.053Z,22.47
2019-06-08T13:45:58.118Z,23.44
2019-06-08T13:48:26.184Z,24.54
2019-06-08T13:50:54.845Z,26.54
2019-06-08T13:53:28.749Z,27.96
2019-06-08T13:55:56.584Z,28.87
2019-06-08T13:58:29.769Z,30.52
2019-06-08T14:00:57.413Z,28.56
2019-06-08T14:03:27.534Z,25.46
2019-06-08T14:05:55.567Z,25.79
2019-06-08T14:08:25.595Z,25.20
2019-06-08T14:11:00.500Z,27.22
2019-06-08T14:13:27.772Z,27.48
2019-06-08T14:15:58.437Z,26.91
2019-06-08T14:18:33.022Z,28.09
2019-06-08T14:20:58.689Z,27.94
2019-06-08T14:23:27.185Z,25.91
2019-06-08T14:25:57.819Z,25.55
2019-06-08T14:28:28.577Z,24.91
2019-06-08T14:30:59.193Z,27.65
2019-06-08T14:33:31.744Z,25.10
2019-06-08T14:35:59.121Z,24.73
2019-06-08T14:38:37.665Z,26.36
2019-06-08T14:40:59.054Z,25.72
2019-06-08T14:43:30.022Z,24.27
2019-06-08T14:45:58.313Z,25.34
2019-06-08T14:48:33.129Z,26.19
2019-06-08T14:50:58.640Z,25.44
2019-06-08T14:53:28.893Z,25.21
2019-06-08T14:56:05.704Z,24.01
2019-06-08T14:58:33.566Z,25.49
2019-06-08T15:00:58.400Z,25.71
2019-06-08T15:03:27.299Z,27.01
2019-06-08T15:05:57.750Z,26.82
2019-06-08T15:08:28.607Z,25.38
2019-06-08T15:10:58.178Z,26.03
2019-06-08T15:13:28.634Z,22.56
2019-06-08T15:16:00.447Z,21.13
2019-06-08T15:18:30.033Z,20.61
2019-06-08T15:20:58.543Z,22.14
2019-06-08T15:23:29.493Z,22.15
2019-06-08T15:25:58.250Z,24.41
2019-06-08T15:28:29.325Z,24.93
2019-06-08T15:30:59.787Z,25.07
2019-06-08T15:33:33.027Z,23.38
2019-06-08T15:35:59.183Z,23.36
2019-06-08T15:38:30.119Z,24.11
2019-06-08T15:40:58.229Z,23.23
2019-06-08T15:43:31.356Z,23.88
2019-06-08T15:45:59.160Z,25.80
2019-06-08T15:48:29.372Z,25.68
2019-06-08T15:50:58.547Z,26.95
2019-06-08T15:53:29.493Z,26.54
2019-06-08T15:55:58.362Z,25.49
2019-06-08T15:58:29.509Z,24.98
2019-06-08T16:00:57.492Z,22.88
2019-06-08T16:03:27.326Z,24.72
2019-06-08T16:05:56.243Z,27.56
2019-06-08T16:08:25.923Z,28.22
2019-06-08T16:10:54.863Z,28.84
2019-06-08T16:13:24.685Z,29.57
2019-06-08T16:15:53.498Z,28.03
2019-06-08T16:18:22.150Z,28.40
2019-06-08T16:20:50.841Z,27.41
2019-06-08T16:23:19.503Z,24.29
2019-06-08T16:25:48.215Z,24.87
2019-06-08T16:28:16.897Z,25.01
2019-06-08T16:30:45.956Z,25.10
2019-06-08T16:33:14.712Z,22.62
2019-06-08T16:35:43.441Z,21.41
2019-06-08T16:38:12.142Z,20.31
2019-06-08T16:40:40.809Z,20.35
2019-06-08T16:43:09.469Z,21.65
2019-06-08T16:45:39.446Z,20.91
2019-06-08T16:48:08.432Z,21.62
2019-06-08T16:50:38.477Z,22.49
2019-06-08T16:53:07.305Z,21.22
2019-06-08T16:55:36.216Z,22.36
2019-06-08T16:58:04.927Z,23.14
2019-06-08T17:00:37.173Z,22.55
2019-06-08T17:03:04.381Z,21.77
2019-06-08T17:05:33.231Z,22.11
2019-06-08T17:08:01.996Z,24.13
2019-06-08T17:10:30.654Z,26.42
2019-06-08T17:12:59.343Z,27.53
2019-06-08T17:15:27.993Z,27.29
2019-06-08T17:17:56.675Z,24.64
2019-06-08T17:20:25.340Z,23.73
2019-06-08T17:22:54.026Z,22.04
2019-06-08T17:25:22.839Z,20.89
2019-06-08T17:27:51.551Z,20.41
2019-06-08T17:30:20.385Z,19.95
2019-06-08T17:32:49.056Z,19.45
2019-06-08T17:35:17.853Z,19.17
2019-06-08T17:37:46.510Z,18.96
2019-06-08T17:40:15.451Z,18.67
2019-06-08T17:42:44.133Z,17.99
2019-06-08T17:45:13.552Z,17.12
2019-06-08T17:47:42.828Z,16.22
2019-06-08T17:50:12.157Z,15.78
2019-06-08T17:52:41.082Z,15.64
2019-06-08T17:55:10.159Z,15.79
2019-06-08T17:57:49.489Z,15.79
2019-06-08T18:00:11.288Z,15.86
2019-06-08T18:02:43.312Z,16.01
2019-06-08T18:05:11.549Z,15.99
2019-06-08T18:07:43.229Z,16.00
2019-06-08T18:10:10.697Z,16.20
2019-06-08T18:12:43.026Z,16.28
2019-06-08T18:15:11.669Z,16.29
2019-06-08T18:17:42.197Z,16.31
2019-06-08T18:20:13.460Z,16.36
2019-06-08T18:22:44.360Z,16.43
2019-06-08T18:25:13.947Z,16.46
2019-06-08T18:27:58.424Z,16.36
2019-06-08T18:30:15.033Z,16.40
2019-06-08T18:32:46.317Z,16.35
2019-06-08T18:35:15.201Z,16.29
2019-06-08T18:37:44.444Z,16.13
2019-06-08T18:40:17.916Z,15.87
2019-06-08T18:42:48.803Z,15.96
2019-06-08T18:45:18.626Z,16.87
2019-06-08T18:47:48.470Z,18.29
2019-06-08T18:50:17.844Z,17.92
2019-06-08T18:52:49.462Z,16.74
2019-06-08T18:55:18.270Z,15.97
2019-06-08T18:57:48.981Z,15.41
2019-06-08T19:00:18.794Z,14.91
2019-06-08T19:02:49.976Z,14.24
2019-06-08T19:05:21.119Z,13.91
2019-06-08T19:07:51.636Z,13.72
2019-06-08T19:10:30.273Z,13.76
2019-06-08T19:12:58.933Z,13.71
2019-06-08T19:15:33.577Z,13.75
2019-06-08T19:18:02.389Z,13.52
2019-06-08T19:20:31.064Z,13.32
2019-06-08T19:22:59.829Z,13.16
2019-06-08T19:25:28.768Z,13.09
2019-06-08T19:27:58.052Z,13.08
2019-06-08T19:30:28.132Z,13.22
2019-06-08T19:32:57.851Z,13.51
2019-06-08T19:35:27.475Z,13.72
2019-06-08T19:37:58.334Z,14.06
2019-06-08T19:40:27.236Z,14.44
2019-06-08T19:43:00.932Z,14.75
2019-06-08T19:45:27.659Z,15.06
2019-06-08T19:47:57.768Z,15.16
2019-06-08T19:50:28.710Z,14.99
2019-06-08T19:52:58.057Z,14.92
2019-06-08T19:55:26.955Z,14.77
2019-06-08T19:57:57.568Z,14.52
2019-06-08T20:00:27.861Z,14.30
2019-06-08T20:02:58.248Z,14.31
2019-06-08T20:05:28.442Z,14.29
2019-06-08T20:07:57.698Z,14.03
2019-06-08T20:10:27.933Z,13.87
2019-06-08T20:12:57.769Z,13.90
2019-06-08T20:15:26.682Z,13.73
2019-06-08T20:17:57.467Z,13.74
2019-06-08T20:20:27.947Z,13.71
2019-06-08T20:22:58.375Z,13.54
2019-06-08T20:25:27.847Z,13.25
2019-06-08T20:27:58.715Z,12.86
2019-06-08T20:30:28.196Z,12.50
2019-06-08T20:32:57.620Z,12.16
2019-06-08T20:35:28.066Z,11.87
2019-06-08T20:37:57.835Z,11.66
2019-06-08T20:40:27.909Z,11.64
2019-06-08T20:42:57.789Z,11.84
2019-06-08T20:45:28.061Z,11.77
2019-06-08T20:47:58.558Z,11.65
2019-06-08T20:50:27.363Z,11.64
2019-06-08T20:52:57.676Z,11.44
2019-06-08T20:55:28.279Z,11.22
2019-06-08T20:57:57.614Z,11.25
2019-06-08T21:00:26.450Z,11.05
2019-06-08T21:03:01.779Z,11.01
2019-06-08T21:05:27.775Z,10.76
2019-06-08T21:07:58.879Z,10.79
2019-06-08T21:10:28.176Z,10.72
2019-06-08T21:12:58.732Z,10.38
2019-06-08T21:15:27.568Z,10.17
2019-06-08T21:17:56.365Z,10.03
2019-06-08T21:20:25.022Z,10.35
2019-06-08T21:22:55.025Z,11.40
2019-06-08T21:25:24.081Z,11.92
2019-06-08T21:27:54.075Z,12.33
2019-06-08T21:30:24.678Z,12.79
2019-06-08T21:32:55.831Z,12.74
2019-06-08T21:35:23.616Z,12.66
2019-06-08T21:37:53.420Z,12.47
2019-06-08T21:40:22.712Z,12.94
2019-06-08T21:42:52.246Z,12.62
2019-06-08T21:45:21.759Z,12.18
2019-06-08T21:47:51.744Z,11.62
2019-06-08T21:50:20.847Z,11.29
2019-06-08T21:52:51.471Z,11.08
2019-06-08T21:55:19.939Z,10.91
2019-06-08T21:57:51.993Z,10.80
2019-06-08T22:00:38.770Z,10.61
2019-06-08T22:02:51.910Z,11.14
2019-06-08T22:05:20.581Z,11.16
2019-06-08T22:07:50.084Z,11.83
2019-06-08T22:10:18.888Z,12.86
2019-06-08T22:12:48.318Z,12.52
2019-06-08T22:15:18.318Z,12.19
2019-06-08T22:17:47.589Z,12.31
2019-06-08T22:20:18.628Z,12.28
2019-06-08T22:22:47.423Z,12.01
2019-06-08T22:25:17.498Z,11.87
2019-06-08T22:27:46.486Z,11.65
2019-06-08T22:30:34.747Z,11.53
2019-06-08T22:32:47.457Z,11.49
2019-06-08T22:35:16.349Z,11.42
2019-06-08T22:37:45.036Z,11.21
2019-06-08T22:40:13.836Z,11.17
2019-06-08T22:42:42.491Z,11.18
2019-06-08T22:45:11.329Z,11.11
2019-06-08T22:47:40.109Z,11.03
2019-06-08T22:50:09.689Z,10.94
2019-06-08T22:52:38.651Z,10.85
2019-06-08T22:55:10.467Z,10.65
2019-06-08T22:57:37.978Z,10.73
2019-06-08T23:00:14.555Z,10.91
2019-06-08T23:02:38.544Z,11.26
2019-06-08T23:05:09.081Z,11.67
2019-06-08T23:07:38.118Z,11.52
2019-06-08T23:10:09.010Z,11.39
2019-06-08T23:12:38.236Z,11.34
2019-06-08T23:15:07.878Z,11.38
2019-06-08T23:17:38.668Z,11.38
2019-06-08T23:20:08.634Z,11.54
2019-06-08T23:22:38.465Z,12.25
2019-06-08T23:25:09.310Z,12.41
2019-06-08T23:27:38.370Z,12.28
2019-06-08T23:30:10.057Z,12.06
2019-06-08T23:32:39.115Z,12.20
2019-06-08T23:35:09.562Z,11.95
2019-06-08T23:37:38.630Z,11.79
2019-06-08T23:40:08.763Z,11.56
2019-06-08T23:42:38.408Z,11.22
2019-06-08T23:45:10.355Z,11.03
2019-06-08T23:47:38.731Z,10.96
2019-06-08T23:50:11.373Z,10.91
2019-06-08T23:52:39.570Z,11.02
2019-06-08T23:55:11.468Z,10.88
2019-06-08T23:57:38.790Z,10.97
